Time,TemperatureF,DewpointF,PressureIn,WindDirection,WindDirectionDegrees,WindSpeedMPH,WindSpeedGustMPH,Humidity,HourlyPrecipIn,Conditions,Clouds,dailyrainin,SoftwareType,DateUTC
2013-06-08 00:13:00,61.4,42.0,29.52,SW,218,0.0,2.0,49,0.00,,,0.00,weatherlink.com 1.10,2013-06-08 06:13:00,
2013-06-08 00:28:00,60.8,41.0,29.51,SSE,163,0.0,3.0,49,0.00,,,0.00,weatherlink.com 1.10,2013-06-08 06:28:00,
2013-06-08 00:43:00,59.7,41.0,29.51,SW,224,0.0,2.0,50,0.00,,,0.00,weatherlink.com 1.10,2013-06-08 06:43:00,
2013-06-08 00:58:00,60.3,40.0,29.50,SSW,212,3.0,5.0,48,0.00,,,0.00,weatherlink.com 1.10,2013-06-08 06:58:00,
2013-06-08 01:13:00,60.9,40.0,29.50,SSW,207,1.0,2.0,46,0.00,,,0.00,weatherlink.com 1.10,2013-06-08 07:13:00,
2013-06-08 01:28:00,61.8,39.0,29.50,WSW,238,1.0,6.0,44,0.00,,,0.00,weatherlink.com 1.10,2013-06-08 07:28:00,
2013-06-08 01:43:00,61.8,41.0,29.50,WSW,238,1.0,5.0,46,0.00,,,0.00,weatherlink.com 1.10,2013-06-08 07:43:00,
2013-06-08 01:58:00,61.6,41.0,29.50,SSW,210,4.0,7.0,47,0.00,,,0.00,weatherlink.com 1.10,2013-06-08 07:58:00,
2013-06-08 02:13:00,61.4,40.0,29.50,West,269,1.0,6.0,46,0.00,,,0.00,weatherlink.com 1.10,2013-06-08 08:13:00,
2013-06-08 02:28:00,61.1,41.0,29.50,SW,222,0.0,3.0,47,0.00,,,0.00,weatherlink.com 1.10,2013-06-08 08:28:00,
2013-06-08 02:43:00,60.1,40.0,29.50,SW,215,1.0,4.0,48,0.00,,,0.00,weatherlink.com 1.10,2013-06-08 08:43:00,
2013-06-08 02:58:00,59.9,39.0,29.49,SSW,202,3.0,5.0,47,0.00,,,0.00,weatherlink.com 1.10,2013-06-08 08:58:00,
2013-06-08 03:13:00,59.4,39.0,29.49,SSW,205,2.0,4.0,48,0.00,,,0.00,weatherlink.com 1.10,2013-06-08 09:13:00,
2013-06-08 03:28:00,59.1,39.0,29.50,WSW,248,1.0,3.0,48,0.00,,,0.00,weatherlink.com 1.10,2013-06-08 09:28:00,
2013-06-08 03:43:00,59.5,39.0,29.49,SSW,202,1.0,5.0,47,0.00,,,0.00,weatherlink.com 1.10,2013-06-08 09:43:00,
2013-06-08 03:58:00,59.3,39.0,29.50,SSW,207,0.0,2.0,47,0.00,,,0.00,weatherlink.com 1.10,2013-06-08 09:58:00,
2013-06-08 04:13:00,59.3,39.0,29.49,SW,217,3.0,4.0,47,0.00,,,0.00,weatherlink.com 1.10,2013-06-08 10:13:00,
2013-06-08 04:28:00,59.3,39.0,29.48,SSW,210,1.0,4.0,48,0.00,,,0.00,weatherlink.com 1.10,2013-06-08 10:28:00,
2013-06-08 04:43:00,58.9,40.0,29.48,SSW,207,0.0,2.0,49,0.00,,,0.00,weatherlink.com 1.10,2013-06-08 10:43:00,
2013-06-08 04:59:00,58.5,40.0,29.49,WNW,298,0.0,3.0,50,0.00,,,0.00,weatherlink.com 1.10,2013-06-08 10:59:00,
2013-06-08 05:14:00,57.9,40.0,29.49,WSW,256,0.0,3.0,51,0.00,,,0.00,weatherlink.com 1.10,2013-06-08 11:14:00,
2013-06-08 05:29:00,57.1,40.0,29.49,West,269,0.0,2.0,53,0.00,,,0.00,weatherlink.com 1.10,2013-06-08 11:29:00,
2013-06-08 05:44:00,56.0,40.0,29.48,West,279,0.0,1.0,56,0.00,,,0.00,weatherlink.com 1.10,2013-06-08 11:44:00,
2013-06-08 05:59:00,56.0,41.0,29.49,WSW,257,0.0,1.0,57,0.00,,,0.00,weatherlink.com 1.10,2013-06-08 11:59:00,
2013-06-08 06:14:00,61.0,41.0,29.50,West,260,1.0,5.0,48,0.00,,,0.00,weatherlink.com 1.10,2013-06-08 12:14:00,
2013-06-08 06:29:00,66.4,41.0,29.50,SW,219,1.0,4.0,39,0.00,,,0.00,weatherlink.com 1.10,2013-06-08 12:29:00,
2013-06-08 06:44:00,69.2,42.0,29.50,WNW,288,2.0,6.0,37,0.00,,,0.00,weatherlink.com 1.10,2013-06-08 12:44:00,
2013-06-08 06:59:00,70.8,42.0,29.51,WNW,283,2.0,11.0,36,0.00,,,0.00,weatherlink.com 1.10,2013-06-08 12:59:00,
2013-06-08 07:14:00,73.4,43.0,29.50,West,260,1.0,13.0,33,0.00,,,0.00,weatherlink.com 1.10,2013-06-08 13:14:00,
2013-06-08 07:29:00,74.1,42.0,29.50,NW,311,4.0,11.0,31,0.00,,,0.00,weatherlink.com 1.10,2013-06-08 13:29:00,
2013-06-08 07:44:00,74.8,44.0,29.50,WNW,284,1.0,7.0,33,0.00,,,0.00,weatherlink.com 1.10,2013-06-08 13:44:00,
2013-06-08 07:59:00,75.4,43.0,29.51,WNW,285,2.0,11.0,31,0.00,,,0.00,weatherlink.com 1.10,2013-06-08 13:59:00,
2013-06-08 08:14:00,75.6,42.0,29.52,WNW,284,2.0,15.0,30,0.00,,,0.00,weatherlink.com 1.10,2013-06-08 14:14:00,
2013-06-08 08:29:00,68.4,47.0,29.56,ENE,63,5.0,17.0,47,0.00,,,0.00,weatherlink.com 1.10,2013-06-08 14:29:00,
2013-06-08 08:44:00,66.6,47.0,29.57,ENE,71,4.0,18.0,50,0.00,,,0.00,weatherlink.com 1.10,2013-06-08 14:44:00,
2013-06-08 08:59:00,66.7,49.0,29.58,ENE,57,5.0,14.0,53,0.00,,,0.00,weatherlink.com 1.10,2013-06-08 14:59:00,
2013-06-08 09:14:00,67.1,49.0,29.60,NNW,342,5.0,11.0,53,0.00,,,0.00,weatherlink.com 1.10,2013-06-08 15:14:00,
2013-06-08 09:29:00,66.4,49.0,29.59,NW,323,4.0,16.0,54,0.00,,,0.00,weatherlink.com 1.10,2013-06-08 15:29:00,
2013-06-08 09:44:00,66.3,49.0,29.60,NNW,345,9.0,11.0,55,0.00,,,0.00,weatherlink.com 1.10,2013-06-08 15:44:00,
2013-06-08 09:59:00,65.8,49.0,29.59,NNE,33,2.0,9.0,56,0.00,,,0.00,weatherlink.com 1.10,2013-06-08 15:59:00,
2013-06-08 10:14:00,67.2,50.0,29.60,NE,51,3.0,12.0,55,0.00,,,0.00,weatherlink.com 1.10,2013-06-08 16:14:00,
2013-06-08 10:29:00,65.9,49.0,29.60,NNE,32,7.0,11.0,55,0.00,,,0.00,weatherlink.com 1.10,2013-06-08 16:29:00,
2013-06-08 10:44:00,67.5,49.0,29.60,NE,43,2.0,8.0,52,0.00,,,0.00,weatherlink.com 1.10,2013-06-08 16:44:00,
2013-06-08 10:59:00,66.5,49.0,29.61,West,280,0.0,6.0,53,0.00,,,0.00,weatherlink.com 1.10,2013-06-08 16:59:00,
2013-06-08 11:14:00,67.2,48.0,29.61,NE,34,6.0,6.0,51,0.00,,,0.00,weatherlink.com 1.10,2013-06-08 17:14:00,
2013-06-08 11:29:00,68.2,48.0,29.61,NNW,340,1.0,6.0,49,0.00,,,0.00,weatherlink.com 1.10,2013-06-08 17:29:00,
2013-06-08 11:44:00,67.9,47.0,29.61,NE,47,1.0,7.0,48,0.00,,,0.00,weatherlink.com 1.10,2013-06-08 17:44:00,
2013-06-08 12:00:00,70.3,48.0,29.61,NE,46,2.0,7.0,45,0.00,,,0.00,weatherlink.com 1.10,2013-06-08 18:00:00,
2013-06-08 12:15:00,70.3,47.0,29.60,East,92,7.0,8.0,43,0.00,,,0.00,weatherlink.com 1.10,2013-06-08 18:15:00,
2013-06-08 12:30:00,70.3,46.0,29.60,North,352,4.0,7.0,42,0.00,,,0.00,weatherlink.com 1.10,2013-06-08 18:30:00,
2013-06-08 12:45:00,71.4,46.0,29.60,East,96,3.0,8.0,41,0.00,,,0.00,weatherlink.com 1.10,2013-06-08 18:45:00,
2013-06-08 13:00:00,71.6,48.0,29.59,NNW,338,1.0,5.0,43,0.00,,,0.00,weatherlink.com 1.10,2013-06-08 19:00:00,
2013-06-08 13:15:00,73.8,46.0,29.60,NNW,338,5.0,9.0,37,0.00,,,0.00,weatherlink.com 1.10,2013-06-08 19:15:00,
2013-06-08 13:30:00,72.4,45.0,29.60,NNW,329,4.0,8.0,38,0.00,,,0.00,weatherlink.com 1.10,2013-06-08 19:30:00,
2013-06-08 13:45:00,73.3,45.0,29.59,SW,225,0.0,9.0,37,0.00,,,0.00,weatherlink.com 1.10,2013-06-08 19:45:00,
2013-06-08 14:00:00,74.9,45.0,29.60,North,358,3.0,10.0,35,0.00,,,0.00,weatherlink.com 1.10,2013-06-08 20:00:00,
2013-06-08 14:15:00,75.1,44.0,29.60,North,358,4.0,11.0,33,0.00,,,0.00,weatherlink.com 1.10,2013-06-08 20:15:00,
2013-06-08 14:30:00,74.8,46.0,29.60,NNE,22,6.0,9.0,36,0.00,,,0.00,weatherlink.com 1.10,2013-06-08 20:30:00,
2013-06-08 14:45:00,75.6,44.0,29.60,East,98,3.0,7.0,33,0.00,,,0.00,weatherlink.com 1.10,2013-06-08 20:45:00,
2013-06-08 15:00:00,75.0,43.0,29.60,ENE,74,3.0,11.0,32,0.00,,,0.00,weatherlink.com 1.10,2013-06-08 21:00:00,
2013-06-08 15:15:00,74.2,43.0,29.60,WNW,298,1.0,11.0,33,0.00,,,0.00,weatherlink.com 1.10,2013-06-08 21:15:00,
2013-06-08 15:30:00,75.3,44.0,29.61,North,357,5.0,8.0,33,0.00,,,0.00,weatherlink.com 1.10,2013-06-08 21:30:00,
2013-06-08 15:45:00,75.5,44.0,29.61,NE,39,2.0,8.0,32,0.00,,,0.00,weatherlink.com 1.10,2013-06-08 21:45:00,
2013-06-08 16:00:00,76.5,44.0,29.61,East,82,1.0,8.0,31,0.00,,,0.00,weatherlink.com 1.10,2013-06-08 22:00:00,
2013-06-08 16:15:00,75.4,43.0,29.61,NE,54,3.0,8.0,32,0.00,,,0.00,weatherlink.com 1.10,2013-06-08 22:15:00,
2013-06-08 16:30:00,76.5,44.0,29.61,NNE,29,1.0,6.0,32,0.00,,,0.00,weatherlink.com 1.10,2013-06-08 22:30:00,
2013-06-08 16:45:00,76.0,43.0,29.61,NE,46,5.0,7.0,31,0.00,,,0.00,weatherlink.com 1.10,2013-06-08 22:45:00,
2013-06-08 17:00:00,75.5,42.0,29.61,NNE,22,4.0,7.0,30,0.00,,,0.00,weatherlink.com 1.10,2013-06-08 23:00:00,
2013-06-08 17:15:00,75.9,42.0,29.61,East,92,1.0,6.0,30,0.00,,,0.00,weatherlink.com 1.10,2013-06-08 23:15:00,
2013-06-08 17:30:00,75.9,42.0,29.61,ENE,76,4.0,9.0,30,0.00,,,0.00,weatherlink.com 1.10,2013-06-08 23:30:00,
2013-06-08 17:45:00,75.9,43.0,29.62,East,79,1.0,7.0,31,0.00,,,0.00,weatherlink.com 1.10,2013-06-08 23:45:00,
2013-06-08 18:00:00,76.4,44.0,29.62,NE,49,4.0,6.0,31,0.00,,,0.00,weatherlink.com 1.10,2013-06-09 00:00:00,
2013-06-08 18:15:00,76.0,43.0,29.63,West,270,1.0,6.0,31,0.00,,,0.00,weatherlink.com 1.10,2013-06-09 00:15:00,
2013-06-08 18:30:00,75.5,43.0,29.63,East,95,2.0,5.0,31,0.00,,,0.00,weatherlink.com 1.10,2013-06-09 00:30:00,
2013-06-08 18:45:00,76.1,42.0,29.64,NNE,26,2.0,3.0,30,0.00,,,0.00,weatherlink.com 1.10,2013-06-09 00:45:00,
2013-06-08 19:00:00,76.1,42.0,29.64,NNE,29,3.0,6.0,30,0.00,,,0.00,weatherlink.com 1.10,2013-06-09 01:00:00,
2013-06-08 19:15:00,74.5,43.0,29.64,NNW,343,4.0,7.0,32,0.00,,,0.00,weatherlink.com 1.10,2013-06-09 01:15:00,
2013-06-08 19:30:00,73.5,42.0,29.65,ENE,65,0.0,6.0,32,0.00,,,0.00,weatherlink.com 1.10,2013-06-09 01:30:00,
2013-06-08 19:45:00,73.1,42.0,29.66,NNE,12,2.0,5.0,33,0.00,,,0.00,weatherlink.com 1.10,2013-06-09 01:45:00,
2013-06-08 20:00:00,71.6,41.0,29.66,East,92,3.0,6.0,33,0.00,,,0.00,weatherlink.com 1.10,2013-06-09 02:00:00,
2013-06-08 20:15:00,70.5,40.0,29.67,NE,37,4.0,6.0,33,0.00,,,0.00,weatherlink.com 1.10,2013-06-09 02:15:00,
2013-06-08 20:30:00,69.4,40.0,29.68,ESE,105,0.0,5.0,34,0.00,,,0.00,weatherlink.com 1.10,2013-06-09 02:30:00,
2013-06-08 20:45:00,68.6,40.0,29.69,ENE,63,2.0,6.0,36,0.00,,,0.00,weatherlink.com 1.10,2013-06-09 02:45:00,
2013-06-08 21:00:00,68.4,40.0,29.69,East,79,1.0,5.0,35,0.00,,,0.00,weatherlink.com 1.10,2013-06-09 03:00:00,
2013-06-08 21:15:00,67.3,40.0,29.71,ENE,65,0.0,4.0,37,0.00,,,0.00,weatherlink.com 1.10,2013-06-09 03:15:00,
2013-06-08 21:30:00,66.9,40.0,29.72,ENE,72,4.0,5.0,38,0.00,,,0.00,weatherlink.com 1.10,2013-06-09 03:30:00,
2013-06-08 21:45:00,66.1,40.0,29.73,East,101,0.0,3.0,39,0.00,,,0.00,weatherlink.com 1.10,2013-06-09 03:45:00,
2013-06-08 22:00:00,65.2,41.0,29.73,ENE,71,1.0,4.0,41,0.00,,,0.00,weatherlink.com 1.10,2013-06-09 04:00:00,
2013-06-08 22:16:00,64.0,41.0,29.75,SE,139,0.0,1.0,43,0.00,,,0.00,weatherlink.com 1.10,2013-06-09 04:16:00,
2013-06-08 22:31:00,62.0,41.0,29.75,SE,139,0.0,0.0,46,0.00,,,0.00,weatherlink.com 1.10,2013-06-09 04:31:00,
2013-06-08 22:46:00,60.4,41.0,29.75,SE,138,0.0,0.0,49,0.00,,,0.00,weatherlink.com 1.10,2013-06-09 04:46:00,
2013-06-08 23:01:00,59.1,41.0,29.75,SE,139,0.0,0.0,51,0.00,,,0.00,weatherlink.com 1.10,2013-06-09 05:01:00,
2013-06-08 23:16:00,58.1,41.0,29.75,SE,139,0.0,0.0,54,0.00,,,0.00,weatherlink.com 1.10,2013-06-09 05:16:00,
2013-06-08 23:31:00,57.9,42.0,29.76,SE,138,0.0,0.0,55,0.00,,,0.00,weatherlink.com 1.10,2013-06-09 05:31:00,
2013-06-08 23:46:00,57.4,42.0,29.76,SSW,197,0.0,1.0,56,0.00,,,0.00,weatherlink.com 1.10,2013-06-09 05:46:00,